Time;durP1;ratioP1;P1;durP2;ratioP2;P2;SDS_P1;SDS_P2;PMS_P1;PMS_P2;Temp;Humidity;BMP_temperature;BMP_pressure;BME280_temperature;BME280_humidity;BME280_pressure;Samples;Min_cycle;Max_cycle;Signal;HPM_P1;HPM_P2
2023/11/10 00:00:42;;;;;;;39.95;9.65;;;10.70;96.60;;;;;;5046399;28;20358;-53
2023/11/10 00:03:07;;;;;;;39.83;9.20;;;10.70;96.60;;;;;;5029855;28;20029;-53
2023/11/10 00:05:33;;;;;;;42.08;7.90;;;10.70;96.60;;;;;;5046124;28;20029;-53
2023/11/10 00:07:59;;;;;;;40.13;8.88;;;10.70;96.60;;;;;;5047401;28;20112;-53
2023/11/10 00:10:26;;;;;;;42.63;9.18;;;10.60;96.60;;;;;;5046262;28;20025;-53
2023/11/10 00:12:53;;;;;;;34.95;8.48;;;10.60;96.50;;;;;;5046384;28;20032;-53
2023/11/10 00:15:19;;;;;;;50.35;9.43;;;10.70;96.60;;;;;;5046135;28;20037;-53
2023/11/10 00:17:45;;;;;;;36.35;8.07;;;10.60;96.60;;;;;;5046051;28;20045;-53
2023/11/10 00:20:11;;;;;;;37.60;8.38;;;10.70;96.60;;;;;;5046120;28;20045;-53
2023/11/10 00:22:39;;;;;;;53.20;9.40;;;10.60;96.60;;;;;;5047085;28;20051;-53
2023/11/10 00:25:05;;;;;;;41.85;8.43;;;10.60;96.60;;;;;;5045764;28;20163;-53
2023/11/10 00:27:32;;;;;;;36.88;8.13;;;10.60;96.50;;;;;;5045999;28;20033;-53
2023/11/10 00:29:57;;;;;;;43.65;8.73;;;10.60;96.50;;;;;;5045892;28;20056;-53
2023/11/10 00:32:24;;;;;;;37.63;8.10;;;10.60;96.50;;;;;;5047653;28;20021;-53
2023/11/10 00:34:49;;;;;;;37.00;7.97;;;10.60;96.50;;;;;;5045966;28;20026;-53
2023/11/10 00:37:15;;;;;;;34.92;8.27;;;10.60;96.50;;;;;;5047403;28;20029;-53
2023/11/10 00:39:40;;;;;;;35.78;7.22;;;10.60;96.50;;;;;;5047026;28;20116;-53
2023/11/10 00:42:06;;;;;;;31.70;7.70;;;10.60;96.50;;;;;;5043661;28;20033;-53
2023/11/10 00:44:32;;;;;;;37.78;8.07;;;10.60;96.50;;;;;;5028995;28;20104;-53
2023/11/10 00:46:59;;;;;;;41.47;8.50;;;10.60;96.50;;;;;;5045654;28;20029;-53
2023/11/10 00:49:24;;;;;;;36.40;8.10;;;10.60;96.40;;;;;;5045525;28;20044;-53
2023/11/10 00:51:50;;;;;;;28.50;7.07;;;10.60;96.50;;;;;;5046231;28;20029;-53
2023/11/10 00:54:16;;;;;;;42.20;7.00;;;10.60;96.50;;;;;;5028749;28;20036;-53
2023/11/10 00:56:42;;;;;;;34.65;7.55;;;10.60;96.50;;;;;;5045328;28;20029;-53
2023/11/10 00:59:08;;;;;;;36.55;8.57;;;10.60;96.50;;;;;;5045166;28;20029;-53
2023/11/10 01:01:35;;;;;;;40.38;7.40;;;10.60;96.50;;;;;;5046621;28;20047;-53
2023/11/10 01:04:01;;;;;;;24.42;7.30;;;10.50;96.40;;;;;;5045221;28;20039;-53
2023/11/10 01:06:27;;;;;;;27.38;6.63;;;10.60;96.40;;;;;;5045075;28;20036;-53
2023/11/10 01:08:53;;;;;;;36.58;8.07;;;10.60;96.40;;;;;;5045150;28;20084;-53
2023/11/10 01:11:18;;;;;;;37.58;7.60;;;10.60;96.40;;;;;;5045337;28;20053;-53
2023/11/10 01:13:44;;;;;;;32.72;7.45;;;10.60;96.40;;;;;;5046413;28;20032;-53
2023/11/10 01:16:10;;;;;;;26.67;6.10;;;10.60;96.40;;;;;;5028528;28;20041;-53
2023/11/10 01:18:35;;;;;;;28.40;7.13;;;10.60;96.40;;;;;;5045072;28;20025;-53
2023/11/10 01:21:01;;;;;;;24.63;6.15;;;10.60;96.40;;;;;;5044984;28;20055;-53
2023/11/10 01:23:27;;;;;;;24.85;6.95;;;10.50;96.30;;;;;;5046079;28;20026;-53
2023/11/10 01:25:52;;;;;;;25.33;7.43;;;10.60;96.40;;;;;;5045216;28;20029;-53
2023/11/10 01:28:20;;;;;;;26.33;5.97;;;10.60;96.40;;;;;;5045163;28;20100;-53
2023/11/10 01:30:45;;;;;;;22.95;5.50;;;10.60;96.40;;;;;;5045103;28;20025;-53
2023/11/10 01:33:11;;;;;;;23.38;5.15;;;10.60;96.40;;;;;;5044977;28;20022;-53
2023/11/10 01:35:37;;;;;;;17.30;5.47;;;10.50;96.30;;;;;;5044911;28;20371;-53
2023/11/10 01:38:03;;;;;;;27.08;5.80;;;10.60;96.40;;;;;;5044961;28;20085;-53
2023/11/10 01:40:31;;;;;;;21.05;5.85;;;10.50;96.40;;;;;;5046195;28;20045;-53
2023/11/10 01:42:57;;;;;;;17.20;5.40;;;10.60;96.40;;;;;;5045940;28;20033;-53
2023/11/10 01:45:22;;;;;;;16.95;5.60;;;10.60;96.40;;;;;;5044935;28;20104;-53
2023/11/10 01:47:48;;;;;;;17.10;4.97;;;10.50;96.40;;;;;;5044870;28;20048;-53
2023/11/10 01:50:13;;;;;;;18.10;5.32;;;10.50;96.50;;;;;;5044864;28;20026;-53
2023/11/10 01:52:41;;;;;;;19.10;5.13;;;10.50;96.50;;;;;;5044753;28;20081;-53
2023/11/10 01:55:10;;;;;;;23.25;4.97;;;10.50;96.50;;;;;;5044651;28;20033;-53
2023/11/10 01:57:36;;;;;;;22.48;5.15;;;10.50;96.50;;;;;;5044726;28;20563;-54
2023/11/10 02:00:01;;;;;;;18.42;5.60;;;10.50;96.50;;;;;;5044889;28;20089;-53
2023/11/10 02:02:27;;;;;;;18.42;5.63;;;10.50;96.50;;;;;;5047025;28;20053;-53
2023/11/10 02:04:52;;;;;;;19.65;4.90;;;10.50;96.60;;;;;;5048420;28;20405;-54
2023/11/10 02:07:18;;;;;;;16.60;4.82;;;10.50;96.60;;;;;;5049790;28;20033;-53
2023/11/10 02:09:43;;;;;;;17.45;4.55;;;10.50;96.60;;;;;;5048445;28;20063;-53
2023/11/10 02:12:09;;;;;;;14.18;4.50;;;10.50;96.60;;;;;;5048652;28;20041;-53
2023/11/10 02:14:35;;;;;;;20.38;4.10;;;10.50;96.60;;;;;;5049719;28;20034;-53
2023/11/10 02:17:01;;;;;;;11.10;4.30;;;10.50;96.60;;;;;;5048559;28;20057;-53
2023/11/10 02:19:27;;;;;;;19.38;3.78;;;10.50;96.60;;;;;;5048134;28;20030;-53
2023/11/10 02:21:52;;;;;;;12.18;3.88;;;10.50;96.70;;;;;;5048376;28;20458;-53
2023/11/10 02:24:18;;;;;;;18.23;4.45;;;10.50;96.70;;;;;;5049203;28;20041;-53
2023/11/10 02:26:44;;;;;;;12.15;3.53;;;10.50;96.70;;;;;;5031886;28;20025;-53
2023/11/10 02:29:10;;;;;;;10.00;4.03;;;10.50;96.70;;;;;;5048065;28;20028;-53
2023/11/10 02:31:36;;;;;;;13.70;3.92;;;10.50;96.80;;;;;;5047977;28;20389;-53
2023/11/10 02:34:02;;;;;;;11.77;3.70;;;10.50;96.80;;;;;;5047955;28;20045;-53
2023/11/10 02:36:30;;;;;;;9.32;3.38;;;10.50;96.80;;;;;;5048187;28;20041;-53
2023/11/10 02:38:56;;;;;;;10.52;3.72;;;10.50;96.90;;;;;;5049205;28;20104;-53
2023/11/10 02:41:22;;;;;;;9.65;3.55;;;10.50;97.20;;;;;;5047798;28;20033;-53
2023/11/10 02:43:47;;;;;;;9.18;2.88;;;10.50;96.90;;;;;;5047828;28;20045;-53
2023/11/10 02:46:13;;;;;;;8.20;3.60;;;10.50;96.90;;;;;;5047776;28;20037;-53
2023/11/10 02:48:39;;;;;;;11.05;3.03;;;10.50;97.00;;;;;;5047772;28;20026;-53
2023/11/10 02:51:05;;;;;;;12.65;3.05;;;10.50;97.00;;;;;;5047729;28;20028;-53
2023/11/10 02:53:31;;;;;;;10.15;3.40;;;10.50;97.00;;;;;;5047634;28;20022;-53
2023/11/10 02:55:56;;;;;;;11.23;3.92;;;10.50;97.00;;;;;;5048958;28;20060;-53
2023/11/10 02:58:22;;;;;;;10.65;3.00;;;10.50;97.00;;;;;;5047711;28;20022;-53
2023/11/10 03:00:52;;;;;;;14.60;3.15;;;10.50;97.00;;;;;;5047620;28;20108;-53
2023/11/10 03:03:18;;;;;;;11.30;3.25;;;10.50;97.10;;;;;;5047510;28;20026;-53
2023/11/10 03:05:43;;;;;;;7.90;3.15;;;10.50;97.10;;;;;;5048710;28;20040;-53
2023/11/10 03:08:09;;;;;;;9.95;2.42;;;10.50;97.10;;;;;;5047389;28;20389;-53
2023/11/10 03:10:34;;;;;;;5.97;2.72;;;10.50;97.00;;;;;;5047435;28;20085;-53
2023/11/10 03:13:00;;;;;;;9.50;3.03;;;10.50;97.10;;;;;;5047069;28;20033;-53
2023/11/10 03:15:27;;;;;;;11.63;2.90;;;10.50;97.10;;;;;;5048510;28;20031;-53
2023/11/10 03:17:54;;;;;;;10.48;3.00;;;10.50;97.00;;;;;;5048639;28;20037;-53
2023/11/10 03:20:19;;;;;;;8.98;3.05;;;10.50;97.00;;;;;;5047171;28;20036;-53
2023/11/10 03:22:45;;;;;;;8.18;2.65;;;10.50;97.00;;;;;;5030721;28;20034;-53
2023/11/10 03:25:11;;;;;;;10.77;3.03;;;10.50;97.00;;;;;;5048172;28;20056;-53
2023/11/10 03:27:36;;;;;;;6.50;2.42;;;10.50;97.10;;;;;;5047212;28;20032;-53
2023/11/10 03:30:03;;;;;;;6.22;2.20;;;10.50;97.10;;;;;;5047026;28;20552;-53
2023/11/10 03:32:31;;;;;;;7.22;2.47;;;10.50;97.10;;;;;;5048266;28;20029;-53
2023/11/10 03:34:57;;;;;;;7.03;2.78;;;10.50;97.10;;;;;;5046968;28;20030;-53
2023/11/10 03:37:22;;;;;;;7.40;2.70;;;10.50;97.10;;;;;;5046905;28;20030;-53
2023/11/10 03:39:48;;;;;;;10.38;2.78;;;10.50;97.10;;;;;;5046718;28;20037;-53
2023/11/10 03:42:13;;;;;;;7.85;2.80;;;10.50;97.10;;;;;;5046875;28;20056;-53
2023/11/10 03:44:39;;;;;;;5.85;2.33;;;10.50;97.10;;;;;;5046739;28;20086;-54
2023/11/10 03:47:05;;;;;;;9.70;2.78;;;10.50;97.10;;;;;;5047949;28;20359;-53
2023/11/10 03:49:30;;;;;;;10.13;2.53;;;10.50;97.10;;;;;;5046681;28;20152;-53
2023/11/10 03:51:56;;;;;;;5.35;2.50;;;10.50;97.10;;;;;;5046641;28;20021;-53
2023/11/10 03:54:22;;;;;;;6.50;2.17;;;10.50;97.40;;;;;;5047939;28;20441;-53
2023/11/10 03:56:48;;;;;;;7.45;2.45;;;10.50;97.10;;;;;;5047863;28;20037;-53
2023/11/10 03:59:14;;;;;;;5.05;2.03;;;10.50;97.10;;;;;;5046573;28;20025;-53
2023/11/10 04:01:39;;;;;;;8.95;2.35;;;10.50;97.10;;;;;;5046116;28;20029;-54
2023/11/10 04:04:07;;;;;;;6.78;2.15;;;10.40;97.10;;;;;;5045984;28;20033;-53
2023/11/10 04:06:33;;;;;;;8.52;2.78;;;10.50;97.10;;;;;;5047173;28;20042;-53
2023/11/10 04:08:59;;;;;;;5.50;2.60;;;10.50;97.10;;;;;;5046425;28;20381;-53
2023/11/10 04:11:24;;;;;;;6.90;2.95;;;10.40;97.00;;;;;;5046172;28;20105;-53
2023/11/10 04:13:50;;;;;;;8.32;2.35;;;10.50;97.00;;;;;;5047173;28;20415;-52
2023/11/10 04:16:22;;;;;;;5.47;1.98;;;10.50;97.00;;;;;;5045738;28;20033;-53
2023/11/10 04:18:54;;;;;;;8.90;2.63;;;10.50;97.00;;;;;;5045715;28;20038;-53
2023/11/10 04:21:21;;;;;;;7.47;2.30;;;10.40;97.00;;;;;;5047206;28;20033;-53
2023/11/10 04:23:48;;;;;;;6.35;2.63;;;10.50;97.10;;;;;;5029199;28;20060;-53
2023/11/10 04:26:14;;;;;;;4.03;2.13;;;10.50;97.10;;;;;;5046072;28;20474;-53
2023/11/10 04:28:40;;;;;;;6.95;2.58;;;10.50;97.10;;;;;;5047005;28;20026;-53
2023/11/10 04:31:06;;;;;;;6.70;2.40;;;10.40;97.00;;;;;;5045965;28;20500;-53
2023/11/10 04:33:32;;;;;;;8.50;2.60;;;10.50;97.00;;;;;;5046133;28;20021;-53
2023/11/10 04:35:57;;;;;;;3.83;2.08;;;10.50;97.00;;;;;;5045867;28;20033;-53
2023/11/10 04:38:25;;;;;;;6.43;1.92;;;10.40;97.00;;;;;;5045422;28;20030;-53
2023/11/10 04:40:51;;;;;;;4.57;2.30;;;10.50;97.00;;;;;;5046209;28;20037;-53
2023/11/10 04:43:17;;;;;;;6.10;2.10;;;10.40;97.00;;;;;;5045479;28;20040;-53
2023/11/10 04:45:42;;;;;;;3.50;2.00;;;10.40;97.10;;;;;;5045169;28;20029;-53
2023/11/10 04:48:08;;;;;;;5.60;1.88;;;10.40;97.20;;;;;;5045223;28;20035;-53
2023/11/10 04:50:34;;;;;;;5.25;2.00;;;10.40;97.20;;;;;;5045155;28;20098;-53
2023/11/10 04:52:59;;;;;;;7.78;1.80;;;10.40;97.20;;;;;;5045487;28;20029;-53
2023/11/10 04:55:25;;;;;;;4.35;1.90;;;10.40;97.20;;;;;;5046120;28;20041;-53
2023/11/10 04:57:51;;;;;;;2.75;1.77;;;10.40;97.30;;;;;;5045169;28;20048;-53
2023/11/10 05:00:16;;;;;;;5.53;2.00;;;10.40;97.30;;;;;;5045406;28;20043;-53
2023/11/10 05:02:43;;;;;;;5.22;1.58;;;10.40;97.40;;;;;;5045169;28;20052;-53
2023/11/10 05:05:12;;;;;;;5.07;1.58;;;10.40;97.50;;;;;;5028850;28;20029;-53
2023/11/10 05:07:38;;;;;;;2.85;1.50;;;10.40;97.50;;;;;;5045402;28;20401;-53
2023/11/10 05:10:05;;;;;;;3.08;1.60;;;10.40;97.50;;;;;;5046362;28;20029;-52
2023/11/10 05:12:31;;;;;;;2.90;1.50;;;10.40;97.60;;;;;;5046148;28;20057;-53
2023/11/10 05:14:57;;;;;;;3.65;1.88;;;10.40;97.60;;;;;;5044911;28;20029;-53
2023/11/10 05:17:23;;;;;;;4.90;1.95;;;10.40;97.70;;;;;;5046182;28;20037;-53
2023/11/10 05:19:49;;;;;;;6.57;2.05;;;10.40;97.80;;;;;;5028644;28;20025;-53
2023/11/10 05:22:15;;;;;;;3.22;1.63;;;10.40;97.80;;;;;;5044993;28;20041;-53
2023/11/10 05:24:43;;;;;;;4.28;1.63;;;10.40;97.80;;;;;;5044623;28;20117;-53
2023/11/10 05:27:09;;;;;;;3.70;1.67;;;10.40;97.90;;;;;;5045201;28;20045;-53
2023/11/10 05:29:35;;;;;;;3.75;1.70;;;10.40;97.90;;;;;;5045100;28;20034;-53
2023/11/10 05:32:01;;;;;;;5.82;1.50;;;10.40;98.00;;;;;;5025333;28;20096;-53
2023/11/10 05:34:26;;;;;;;4.85;1.98;;;10.50;98.00;;;;;;5041459;28;20489;-53
2023/11/10 05:36:52;;;;;;;5.25;1.88;;;10.50;98.00;;;;;;5041322;28;20026;-52
2023/11/10 05:39:18;;;;;;;8.95;2.28;;;10.50;98.00;;;;;;5041129;28;20053;-53
2023/11/10 05:41:44;;;;;;;34.28;5.72;;;10.40;97.90;;;;;;5026411;28;20058;-52
2023/11/10 05:44:11;;;;;;;24.85;4.65;;;10.50;97.90;;;;;;5026313;28;20117;-53
2023/11/10 05:46:38;;;;;;;44.97;5.20;;;10.50;97.90;;;;;;5024856;28;20034;-53
2023/11/10 05:49:05;;;;;;;73.70;7.57;;;10.50;98.00;;;;;;5041323;28;20026;-53
2023/11/10 05:51:31;;;;;;;64.35;6.63;;;10.40;97.90;;;;;;5025050;28;20026;-53
2023/11/10 05:53:57;;;;;;;46.92;6.70;;;10.50;98.00;;;;;;5026008;28;20100;-52
2023/11/10 05:56:23;;;;;;;46.60;5.63;;;10.40;97.90;;;;;;5041475;28;20120;-53
2023/11/10 05:58:51;;;;;;;52.97;6.88;;;10.40;97.90;;;;;;5041076;28;20089;-52
2023/11/10 06:01:22;;;;;;;66.57;6.82;;;10.40;97.90;;;;;;5026002;28;20034;-53
2023/11/10 06:03:48;;;;;;;33.22;6.18;;;10.40;97.90;;;;;;5024601;28;20102;-53
2023/11/10 06:06:13;;;;;;;40.35;5.35;;;10.40;97.90;;;;;;5041115;28;20052;-53
2023/11/10 06:08:39;;;;;;;33.88;5.30;;;10.40;97.90;;;;;;5025835;28;20029;-53
2023/11/10 06:11:04;;;;;;;33.78;6.03;;;10.40;97.90;;;;;;5026099;28;20113;-53
2023/11/10 06:13:31;;;;;;;47.75;5.75;;;10.40;97.90;;;;;;5041235;28;20030;-53
2023/11/10 06:15:59;;;;;;;30.95;5.20;;;10.40;97.80;;;;;;5024732;28;20067;-53
2023/11/10 06:18:24;;;;;;;37.97;6.03;;;10.40;97.80;;;;;;5025978;28;20490;-53
2023/11/10 06:20:50;;;;;;;45.80;6.53;;;10.40;97.80;;;;;;5025711;28;20068;-53
2023/11/10 06:23:15;;;;;;;23.95;4.20;;;10.40;97.90;;;;;;5040994;28;20018;-53
2023/11/10 06:25:41;;;;;;;33.05;5.40;;;10.40;97.90;;;;;;5041002;28;20406;-53
2023/11/10 06:28:07;;;;;;;25.95;5.90;;;10.40;97.90;;;;;;5025984;28;20022;-53
2023/11/10 06:30:32;;;;;;;30.60;4.72;;;10.40;97.90;;;;;;5024918;28;20033;-53
2023/11/10 06:32:58;;;;;;;26.45;4.38;;;10.40;97.90;;;;;;5025806;28;20085;-53
2023/11/10 06:35:23;;;;;;;34.70;5.18;;;10.40;98.00;;;;;;5024167;28;20458;-59
2023/11/10 06:37:49;;;;;;;26.60;5.05;;;10.40;98.00;;;;;;5026584;28;20049;-58
2023/11/10 06:40:15;;;;;;;28.45;4.97;;;10.40;98.00;;;;;;5040081;28;20030;-58
2023/11/10 06:42:40;;;;;;;23.92;4.50;;;10.40;97.90;;;;;;5025449;28;20097;-58
2023/11/10 06:45:06;;;;;;;26.65;5.80;;;10.50;97.90;;;;;;5041320;28;20061;-58
2023/11/10 06:47:33;;;;;;;26.60;5.13;;;10.40;97.90;;;;;;5022457;28;20045;-58
2023/11/10 06:49:59;;;;;;;33.15;5.50;;;10.40;97.90;;;;;;5043278;28;20101;-57
2023/11/10 06:52:25;;;;;;;20.35;4.47;;;10.40;97.90;;;;;;5027906;28;20030;-58
2023/11/10 06:54:50;;;;;;;29.98;4.93;;;10.40;97.90;;;;;;5044219;28;20022;-58
2023/11/10 06:57:16;;;;;;;27.17;4.15;;;10.40;97.90;;;;;;5029102;28;20034;-58
2023/11/10 06:59:44;;;;;;;27.58;5.00;;;10.40;97.80;;;;;;5044107;28;20025;-58
2023/11/10 07:02:12;;;;;;;21.25;4.10;;;10.40;97.80;;;;;;5027572;28;20034;-58
2023/11/10 07:04:38;;;;;;;18.63;3.38;;;10.40;97.80;;;;;;5043890;28;20029;-58
2023/11/10 07:07:04;;;;;;;17.38;3.40;;;10.40;97.80;;;;;;5028903;28;20034;-58
2023/11/10 07:09:30;;;;;;;28.08;4.15;;;10.40;97.80;;;;;;5044077;28;20046;-58
2023/11/10 07:11:56;;;;;;;22.55;4.13;;;10.40;97.70;;;;;;5027875;28;20034;-58
2023/11/10 07:14:21;;;;;;;17.42;3.50;;;10.40;97.70;;;;;;5028825;28;20029;-58
2023/11/10 07:16:48;;;;;;;18.50;3.78;;;10.40;97.70;;;;;;5027452;28;20034;-58
2023/11/10 07:19:13;;;;;;;12.80;2.88;;;10.40;97.80;;;;;;5027516;28;20061;-58
2023/11/10 07:21:39;;;;;;;21.42;4.10;;;10.40;97.80;;;;;;5028404;28;20414;-58
2023/11/10 07:24:05;;;;;;;14.23;3.72;;;10.40;97.70;;;;;;5061560;28;20033;-57
2023/11/10 07:26:31;;;;;;;15.07;3.33;;;10.40;97.70;;;;;;5047044;28;20079;-57
2023/11/10 07:29:02;;;;;;;23.77;3.75;;;10.40;97.70;;;;;;5036995;28;20033;-58
2023/11/10 07:31:28;;;;;;;12.38;3.17;;;10.40;97.70;;;;;;5027481;28;20130;-58
2023/11/10 07:33:55;;;;;;;9.20;2.80;;;10.40;97.70;;;;;;5040105;28;20021;-58
2023/11/10 07:36:21;;;;;;;16.60;3.28;;;10.40;97.70;;;;;;5045692;28;20397;-58
2023/11/10 07:38:47;;;;;;;15.23;3.22;;;10.50;97.80;;;;;;5043089;28;20029;-58
2023/11/10 07:41:12;;;;;;;12.02;2.70;;;10.40;97.70;;;;;;5046576;28;20068;-58
2023/11/10 07:43:38;;;;;;;17.23;2.88;;;10.40;97.60;;;;;;5047802;28;20034;-58
2023/11/10 07:46:04;;;;;;;15.40;3.80;;;10.40;97.60;;;;;;5045921;28;20033;-58
2023/11/10 07:48:32;;;;;;;31.38;4.63;;;10.40;97.60;;;;;;5043630;28;20092;-58
2023/11/10 07:50:58;;;;;;;15.70;3.80;;;10.40;97.60;;;;;;5046540;28;20029;-58
2023/11/10 07:53:26;;;;;;;17.25;4.38;;;10.50;97.60;;;;;;5053747;28;20084;-57
2023/11/10 07:55:52;;;;;;;30.63;3.55;;;10.50;97.60;;;;;;5055252;28;20030;-58
2023/11/10 07:58:18;;;;;;;24.00;3.13;;;10.50;97.60;;;;;;5041642;28;20029;-58
2023/11/10 08:00:45;;;;;;;19.40;4.00;;;10.50;97.60;;;;;;5035743;28;20064;-58
2023/11/10 08:03:11;;;;;;;16.25;3.33;;;10.50;97.90;;;;;;5046054;28;20088;-58
2023/11/10 08:05:37;;;;;;;24.23;4.43;;;10.50;97.60;;;;;;5040518;28;20034;-58
2023/11/10 08:08:05;;;;;;;22.50;4.63;;;10.50;97.60;;;;;;5037131;28;20473;-58
2023/11/10 08:10:31;;;;;;;44.70;4.25;;;10.50;97.50;;;;;;5039843;28;20030;-58
2023/11/10 08:12:57;;;;;;;26.75;4.82;;;10.50;97.50;;;;;;5044315;28;20371;-58
2023/11/10 08:15:22;;;;;;;37.88;5.47;;;10.60;97.50;;;;;;5050805;28;20032;-58
2023/11/10 08:17:48;;;;;;;47.42;5.55;;;10.60;97.50;;;;;;5045342;28;20038;-58
2023/11/10 08:20:13;;;;;;;23.13;5.55;;;10.60;97.50;;;;;;5046299;28;20037;-58
2023/11/10 08:22:39;;;;;;;33.10;4.82;;;10.60;97.50;;;;;;5043689;28;20029;-58
2023/11/10 08:25:05;;;;;;;51.38;5.75;;;10.60;97.40;;;;;;5046588;28;20030;-58
2023/11/10 08:27:32;;;;;;;42.55;5.88;;;10.60;97.40;;;;;;5047061;28;20029;-58
2023/11/10 08:29:58;;;;;;;47.45;5.72;;;10.60;97.40;;;;;;5045268;28;20028;-58
2023/11/10 08:32:24;;;;;;;55.53;7.25;;;10.70;97.40;;;;;;5046658;28;20033;-58
2023/11/10 08:34:49;;;;;;;68.38;8.55;;;10.70;97.40;;;;;;5045209;28;20025;-58
2023/11/10 08:37:15;;;;;;;63.05;8.07;;;10.70;97.50;;;;;;5045903;28;20026;-58
2023/11/10 08:39:40;;;;;;;66.70;9.38;;;10.70;97.50;;;;;;5044457;28;20041;-58
2023/11/10 08:42:06;;;;;;;62.17;9.50;;;10.70;97.50;;;;;;5045831;28;20430;-58
2023/11/10 08:44:32;;;;;;;101.95;13.10;;;10.70;97.50;;;;;;5046439;28;20026;-58
2023/11/10 08:46:57;;;;;;;110.18;12.45;;;10.80;97.60;;;;;;5040881;28;20091;-58
2023/11/10 08:49:23;;;;;;;199.88;23.30;;;10.80;97.80;;;;;;5041504;28;20028;-58
2023/11/10 08:51:51;;;;;;;182.18;20.48;;;10.80;97.90;;;;;;5046123;28;20053;-58
2023/11/10 08:54:18;;;;;;;101.00;14.50;;;10.80;97.90;;;;;;5046414;28;20029;-58
2023/11/10 08:56:44;;;;;;;108.35;15.02;;;10.80;98.00;;;;;;5036352;28;20458;-57
2023/11/10 08:59:10;;;;;;;95.95;12.65;;;10.90;98.10;;;;;;5026530;28;20056;-58
2023/11/10 09:01:35;;;;;;;119.65;13.10;;;10.80;98.10;;;;;;5026051;28;20394;-58
2023/11/10 09:04:03;;;;;;;93.82;13.18;;;10.90;98.10;;;;;;5050356;28;20421;-58
2023/11/10 09:06:29;;;;;;;129.93;14.18;;;10.90;98.00;;;;;;5027829;28;20030;-58
2023/11/10 09:08:55;;;;;;;111.07;14.75;;;10.90;98.00;;;;;;5034589;28;20025;-58
2023/11/10 09:11:20;;;;;;;120.38;14.85;;;10.90;98.10;;;;;;5044203;28;20025;-58
2023/11/10 09:13:46;;;;;;;143.10;17.23;;;11.00;98.10;;;;;;5044410;28;20441;-58
2023/11/10 09:16:11;;;;;;;174.02;19.75;;;11.00;98.00;;;;;;5022734;28;20021;-58
2023/11/10 09:18:37;;;;;;;149.27;16.52;;;11.00;98.00;;;;;;5027782;28;20121;-58
2023/11/10 09:21:04;;;;;;;141.27;17.48;;;11.00;97.90;;;;;;5025595;28;20033;-58
2023/11/10 09:23:29;;;;;;;164.02;19.88;;;11.10;98.00;;;;;;5040447;28;20037;-57
2023/11/10 09:25:58;;;;;;;171.35;18.70;;;11.10;98.00;;;;;;5057355;28;20034;-58
2023/11/10 09:28:27;;;;;;;147.07;18.48;;;11.10;97.90;;;;;;5043852;28;20129;-58
2023/11/10 09:30:53;;;;;;;199.45;26.38;;;11.20;97.90;;;;;;5044464;28;20025;-58
2023/11/10 09:33:21;;;;;;;143.73;18.63;;;11.20;98.00;;;;;;5039817;28;20029;-58
2023/11/10 09:35:47;;;;;;;134.13;18.70;;;11.20;98.00;;;;;;5024903;28;20132;-58
2023/11/10 09:38:13;;;;;;;148.43;18.88;;;11.20;98.00;;;;;;5026140;28;20034;-58
2023/11/10 09:40:38;;;;;;;130.85;17.17;;;11.20;98.10;;;;;;5026228;28;20041;-58
2023/11/10 09:43:05;;;;;;;151.10;17.15;;;11.20;98.10;;;;;;5030367;28;20121;-58
2023/11/10 09:45:30;;;;;;;127.13;17.35;;;11.30;98.10;;;;;;5030098;28;20044;-58
2023/11/10 09:47:57;;;;;;;198.00;22.80;;;11.30;98.20;;;;;;5044565;28;20026;-58
2023/11/10 09:50:22;;;;;;;195.30;20.90;;;11.30;98.20;;;;;;5044576;28;20041;-58
2023/11/10 09:52:49;;;;;;;156.30;20.65;;;11.30;98.20;;;;;;5039561;28;20075;-58
2023/11/10 09:55:14;;;;;;;167.25;18.98;;;11.40;98.10;;;;;;5023652;28;20022;-58
2023/11/10 09:57:40;;;;;;;137.48;18.40;;;11.40;98.00;;;;;;5024445;28;20034;-58
2023/11/10 10:00:10;;;;;;;144.20;17.50;;;11.40;98.00;;;;;;5023768;28;20030;-58
2023/11/10 10:02:39;;;;;;;139.20;18.27;;;11.50;98.00;;;;;;5044553;28;20167;-58
2023/11/10 10:05:09;;;;;;;129.98;17.00;;;11.50;98.00;;;;;;5044128;28;20033;-58
2023/11/10 10:07:35;;;;;;;130.85;17.40;;;11.50;97.80;;;;;;5044475;28;20034;-58
2023/11/10 10:10:00;;;;;;;134.93;17.85;;;11.60;97.70;;;;;;5039468;28;20036;-58
2023/11/10 10:12:28;;;;;;;177.77;19.30;;;11.60;97.70;;;;;;5036570;28;20103;-58
2023/11/10 10:14:54;;;;;;;139.57;18.15;;;11.70;97.70;;;;;;5045732;28;20083;-58
2023/11/10 10:17:33;;;;;;;171.60;19.90;;;11.60;97.50;;;;;;5044147;28;20108;-58
2023/11/10 10:20:14;;;;;;;174.32;21.73;;;11.70;97.60;;;;;;5042294;28;20511;-58
2023/11/10 10:22:47;;;;;;;176.93;21.13;;;11.60;97.70;;;;;;5044271;28;20083;-58
2023/11/10 10:25:13;;;;;;;137.63;19.83;;;11.60;97.70;;;;;;5046207;28;20033;-58
2023/11/10 10:27:39;;;;;;;139.05;19.60;;;11.70;97.80;;;;;;5045636;28;20358;-58
2023/11/10 10:30:06;;;;;;;164.35;20.52;;;11.70;97.90;;;;;;5046657;28;20033;-58
2023/11/10 10:32:33;;;;;;;130.02;19.75;;;11.60;97.90;;;;;;5031328;28;20037;-58
2023/11/10 10:35:03;;;;;;;134.88;19.85;;;11.60;98.00;;;;;;5048013;28;20060;-58
2023/11/10 10:37:31;;;;;;;123.95;18.15;;;11.80;98.10;;;;;;5044577;28;20084;-58
2023/11/10 10:40:00;;;;;;;157.45;19.35;;;11.70;98.00;;;;;;5047604;28;20037;-57
2023/11/10 10:42:34;;;;;;;162.50;20.33;;;11.70;98.00;;;;;;5049845;28;20041;-58
2023/11/10 10:44:59;;;;;;;172.98;22.70;;;11.80;98.00;;;;;;5054514;28;20040;-58
2023/11/10 10:47:25;;;;;;;167.23;20.85;;;11.80;98.10;;;;;;5051414;28;20021;-58
2023/11/10 10:49:51;;;;;;;145.98;20.02;;;11.90;98.10;;;;;;5050225;28;20032;-58
2023/11/10 10:52:16;;;;;;;176.45;20.02;;;11.90;98.00;;;;;;5055238;28;20025;-58
2023/11/10 10:54:42;;;;;;;165.77;19.85;;;11.90;98.00;;;;;;5043718;28;20073;-58
2023/11/10 10:57:07;;;;;;;150.18;20.85;;;11.90;98.00;;;;;;5046337;28;20155;-58
2023/11/10 10:59:36;;;;;;;140.18;20.30;;;11.90;98.10;;;;;;5046110;28;20030;-58
2023/11/10 11:02:03;;;;;;;161.85;20.98;;;11.90;98.10;;;;;;5048694;28;20032;-58
2023/11/10 11:04:29;;;;;;;136.88;19.17;;;12.00;98.10;;;;;;5048562;28;20080;-58
2023/11/10 11:07:10;;;;;;;165.32;19.35;;;12.00;97.90;;;;;;5047487;28;20093;-58
2023/11/10 11:10:02;;;;;;;122.45;15.40;;;12.00;97.90;;;;;;5046632;28;20030;-63
2023/11/10 11:12:57;;;;;;;133.50;17.35;;;12.00;97.80;;;;;;5043774;28;20037;-61
2023/11/10 11:16:00;;;;;;;103.13;13.00;;;12.00;97.50;;;;;;5065869;28;20037;-59
2023/11/10 11:18:48;;;;;;;97.18;14.10;;;11.90;97.10;;;;;;5046477;28;20034;-60
2023/11/10 11:21:14;;;;;;;136.70;17.52;;;11.90;97.30;;;;;;5059246;28;20029;-59
2023/11/10 11:23:40;;;;;;;120.30;15.70;;;11.80;97.20;;;;;;5046569;28;20040;-59
2023/11/10 11:26:05;;;;;;;145.73;15.38;;;11.80;97.30;;;;;;5042133;28;20044;-60
2023/11/10 11:28:38;;;;;;;124.30;17.70;;;11.90;96.90;;;;;;5072931;28;20041;-59
2023/11/10 11:31:11;;;;;;;132.23;14.18;;;11.80;96.80;;;;;;5026905;28;20471;-59
2023/11/10 11:33:47;;;;;;;132.02;15.60;;;11.80;96.80;;;;;;5060440;28;20057;-60
2023/11/10 11:36:18;;;;;;;117.03;14.05;;;11.80;96.80;;;;;;5016989;28;20037;-60
2023/11/10 11:38:45;;;;;;;143.38;19.10;;;11.80;96.90;;;;;;5040357;28;20037;-59
2023/11/10 11:41:13;;;;;;;142.85;16.15;;;11.70;97.00;;;;;;5053264;28;20040;-59
2023/11/10 11:43:49;;;;;;;103.15;13.90;;;11.70;97.00;;;;;;5064645;28;20029;-59
2023/11/10 11:46:15;;;;;;;130.55;15.82;;;11.70;96.90;;;;;;5041516;28;20033;-59
2023/11/10 11:48:40;;;;;;;118.70;15.40;;;11.70;96.90;;;;;;5038150;28;20018;-57
2023/11/10 11:51:06;;;;;;;129.35;16.90;;;11.70;96.90;;;;;;5044521;28;20106;-59
2023/11/10 11:53:35;;;;;;;104.93;13.32;;;11.70;97.00;;;;;;5045832;28;20026;-59
2023/11/10 11:56:01;;;;;;;134.50;16.23;;;11.70;96.90;;;;;;5047961;28;20033;-59
2023/11/10 11:58:27;;;;;;;131.93;18.27;;;11.70;96.90;;;;;;5058525;28;20029;-59
2023/11/10 12:00:53;;;;;;;138.10;17.77;;;11.70;96.90;;;;;;5046818;28;20044;-59
2023/11/10 12:03:18;;;;;;;164.05;17.70;;;11.60;97.00;;;;;;5043014;28;20238;-59
2023/11/10 12:05:44;;;;;;;141.10;18.98;;;11.70;97.20;;;;;;5045383;28;20048;-59
2023/11/10 12:08:13;;;;;;;173.32;18.95;;;11.60;97.10;;;;;;5045153;28;20044;-59
2023/11/10 12:10:39;;;;;;;147.43;16.15;;;11.60;97.20;;;;;;5046749;28;20321;-59
2023/11/10 12:13:06;;;;;;;173.93;19.13;;;11.60;97.30;;;;;;5035407;28;20053;-59
2023/11/10 12:15:33;;;;;;;160.85;19.10;;;11.60;97.30;;;;;;5043000;28;20065;-59
2023/11/10 12:17:58;;;;;;;153.52;16.40;;;11.60;97.30;;;;;;5045840;28;20048;-59
2023/11/10 12:20:24;;;;;;;137.73;17.13;;;11.60;97.20;;;;;;5048184;28;20029;-59
2023/11/10 12:22:53;;;;;;;150.52;17.50;;;11.60;97.30;;;;;;5049145;28;20102;-59
2023/11/10 12:25:20;;;;;;;116.82;16.55;;;11.60;97.20;;;;;;5041583;28;20026;-59
2023/11/10 12:27:46;;;;;;;140.48;16.95;;;11.60;97.20;;;;;;5043196;28;20029;-59
2023/11/10 12:30:12;;;;;;;191.18;21.08;;;11.60;97.10;;;;;;5043821;28;20049;-59